Time;durP1;ratioP1;P1;durP2;ratioP2;P2;SDS_P1;SDS_P2;PMS_P1;PMS_P2;Temp;Humidity;BMP_temperature;BMP_pressure;BME280_temperature;BME280_humidity;BME280_pressure;Samples;Min_cycle;Max_cycle;Signal;HPM_P1;HPM_P2
2023/06/02 00:01:13;;;;;;;13.60;7.15;;;;;;;;;;5032412;28;20041;-77
2023/06/02 00:03:40;;;;;;;27.05;7.70;;;;;;;;;;5032377;28;20041;-75
2023/06/02 00:06:11;;;;;;;19.92;8.15;;;;;;;;;;5032217;28;20042;-76
2023/06/02 00:08:40;;;;;;;18.45;7.45;;;;;;;;;;5032430;28;20076;-75
2023/06/02 00:11:07;;;;;;;15.47;7.80;;;;;;;;;;5032695;28;20041;-74
2023/06/02 00:13:33;;;;;;;16.63;7.65;;;;;;;;;;5033687;28;20049;-75
2023/06/02 00:16:00;;;;;;;23.17;7.93;;;;;;;;;;5016835;28;20137;-76
2023/06/02 00:18:26;;;;;;;24.50;7.95;;;;;;;;;;5036336;28;20056;-76
2023/06/02 00:20:53;;;;;;;17.83;8.15;;;;;;;;;;5037911;28;20399;-75
2023/06/02 00:23:19;;;;;;;22.30;7.78;;;;;;;;;;5036893;28;20049;-75
2023/06/02 00:25:46;;;;;;;19.17;7.53;;;;;;;;;;5036762;28;20041;-76
2023/06/02 00:28:12;;;;;;;16.38;7.88;;;;;;;;;;5018412;28;20053;-76
2023/06/02 00:30:39;;;;;;;23.60;7.85;;;;;;;;;;5017991;28;20042;-75
2023/06/02 00:33:05;;;;;;;23.85;8.63;;;;;;;;;;5035980;28;20053;-75
2023/06/02 00:35:31;;;;;;;27.00;8.05;;;;;;;;;;5035804;28;20041;-74
2023/06/02 00:38:02;;;;;;;24.17;8.40;;;;;;;;;;5035561;28;20137;-77
2023/06/02 00:40:29;;;;;;;30.65;8.30;;;;;;;;;;5035400;28;20103;-74
2023/06/02 00:42:55;;;;;;;19.42;8.40;;;;;;;;;;5032564;28;20087;-76
2023/06/02 00:45:21;;;;;;;20.60;8.35;;;;;;;;;;5031566;28;20199;-75
2023/06/02 00:47:47;;;;;;;23.05;8.30;;;;;;;;;;5032012;28;20449;-76
2023/06/02 00:50:13;;;;;;;24.70;8.75;;;;;;;;;;5031471;28;20045;-76
2023/06/02 00:52:39;;;;;;;24.10;8.55;;;;;;;;;;5031530;28;20052;-77
2023/06/02 00:55:07;;;;;;;25.90;8.00;;;;;;;;;;5014120;28;20525;-75
2023/06/02 00:57:34;;;;;;;22.08;8.35;;;;;;;;;;5032262;28;20042;-75
2023/06/02 01:00:05;;;;;;;20.42;8.40;;;;;;;;;;5033201;28;20045;-75
2023/06/02 01:02:34;;;;;;;18.85;8.77;;;;;;;;;;5032957;28;20055;-75
2023/06/02 01:05:03;;;;;;;21.05;8.18;;;;;;;;;;5032055;28;20049;-76
2023/06/02 01:07:30;;;;;;;15.63;8.07;;;;;;;;;;5039664;28;20069;-76
2023/06/02 01:09:56;;;;;;;21.85;8.55;;;;;;;;;;5034977;28;20099;-76
2023/06/02 01:12:23;;;;;;;19.92;8.20;;;;;;;;;;5014720;28;20037;-76
2023/06/02 01:14:49;;;;;;;20.50;7.80;;;;;;;;;;5013819;28;20056;-77
2023/06/02 01:17:17;;;;;;;22.52;9.18;;;;;;;;;;5013847;28;20509;-76
2023/06/02 01:19:43;;;;;;;13.73;8.27;;;;;;;;;;5031010;28;20056;-76
2023/06/02 01:22:13;;;;;;;18.50;8.32;;;;;;;;;;4997453;28;20037;-74
2023/06/02 01:24:40;;;;;;;21.60;8.00;;;;;;;;;;4997827;28;20191;-76
2023/06/02 01:27:06;;;;;;;14.57;8.35;;;;;;;;;;5030922;28;20523;-76
2023/06/02 01:29:35;;;;;;;23.23;7.80;;;;;;;;;;5013348;28;20187;-76
2023/06/02 01:32:09;;;;;;;15.20;7.85;;;;;;;;;;4997427;28;20185;-75
2023/06/02 01:34:37;;;;;;;14.98;7.82;;;;;;;;;;5030607;28;20065;-76
2023/06/02 01:37:03;;;;;;;25.17;8.43;;;;;;;;;;5030670;28;20060;-76
2023/06/02 01:39:30;;;;;;;13.80;7.35;;;;;;;;;;5030421;28;20532;-77
2023/06/02 01:41:56;;;;;;;11.48;7.03;;;;;;;;;;5012974;28;20300;-77
2023/06/02 01:44:21;;;;;;;16.92;7.53;;;;;;;;;;5030253;28;20346;-75
2023/06/02 01:46:48;;;;;;;22.55;8.10;;;;;;;;;;5013079;28;20132;-78
2023/06/02 01:49:17;;;;;;;12.95;7.82;;;;;;;;;;5030318;28;20100;-76
2023/06/02 01:51:43;;;;;;;18.13;8.15;;;;;;;;;;5013289;28;20121;-76
2023/06/02 01:54:10;;;;;;;25.95;10.52;;;;;;;;;;5029215;28;20058;-74
2023/06/02 01:56:36;;;;;;;20.20;7.97;;;;;;;;;;5012725;28;20115;-75
2023/06/02 01:59:03;;;;;;;28.55;8.10;;;;;;;;;;5023366;28;20525;-77
2023/06/02 02:01:30;;;;;;;21.10;7.82;;;;;;;;;;5030024;28;20046;-77
2023/06/02 02:03:56;;;;;;;13.30;7.70;;;;;;;;;;5030377;28;20458;-75
2023/06/02 02:06:29;;;;;;;21.00;7.88;;;;;;;;;;5030052;28;20049;-76
2023/06/02 02:08:59;;;;;;;22.85;7.90;;;;;;;;;;5030376;28;20045;-76
2023/06/02 02:11:28;;;;;;;18.60;7.38;;;;;;;;;;5030127;28;20518;-75
2023/06/02 02:13:55;;;;;;;20.80;7.60;;;;;;;;;;5030169;28;20053;-75
2023/06/02 02:16:21;;;;;;;15.90;6.93;;;;;;;;;;5029998;28;20103;-76
2023/06/02 02:18:47;;;;;;;19.50;8.07;;;;;;;;;;5029977;28;20045;-77
2023/06/02 02:21:13;;;;;;;15.77;8.02;;;;;;;;;;5029981;28;20079;-75
2023/06/02 02:23:40;;;;;;;20.88;7.65;;;;;;;;;;5029987;28;20048;-75
2023/06/02 02:26:06;;;;;;;23.42;7.93;;;;;;;;;;5012699;28;20133;-75
2023/06/02 02:28:32;;;;;;;13.48;8.05;;;;;;;;;;5012464;28;20045;-76
2023/06/02 02:30:58;;;;;;;11.07;6.60;;;;;;;;;;5030171;28;20045;-76
2023/06/02 02:33:25;;;;;;;11.95;7.10;;;;;;;;;;5029515;28;20092;-77
2023/06/02 02:35:53;;;;;;;14.63;7.50;;;;;;;;;;5012571;28;20049;-76
2023/06/02 02:38:19;;;;;;;13.95;7.32;;;;;;;;;;5030079;28;20068;-77
2023/06/02 02:40:46;;;;;;;9.57;7.22;;;;;;;;;;5030603;28;20138;-77
2023/06/02 02:43:13;;;;;;;20.08;8.18;;;;;;;;;;5013944;28;20144;-76
2023/06/02 02:45:39;;;;;;;14.85;8.23;;;;;;;;;;5014700;28;20052;-78
2023/06/02 02:48:07;;;;;;;15.23;8.40;;;;;;;;;;5014378;28;20041;-77
2023/06/02 02:50:34;;;;;;;16.10;7.88;;;;;;;;;;5030540;28;20120;-78
2023/06/02 02:53:01;;;;;;;16.90;9.45;;;;;;;;;;5023013;28;20045;-76
2023/06/02 02:55:27;;;;;;;17.50;8.30;;;;;;;;;;5016926;28;20540;-77
2023/06/02 02:57:54;;;;;;;13.95;6.13;;;;;;;;;;5030116;28;20048;-76
2023/06/02 03:00:20;;;;;;;13.90;7.10;;;;;;;;;;5029589;28;20115;-76
2023/06/02 03:02:47;;;;;;;21.42;7.35;;;;;;;;;;5029698;28;20042;-77
2023/06/02 03:05:13;;;;;;;25.05;8.23;;;;;;;;;;5029758;28;20068;-75
2023/06/02 03:07:44;;;;;;;19.17;8.48;;;;;;;;;;4999366;28;20041;-76
2023/06/02 03:10:11;;;;;;;17.65;9.50;;;;;;;;;;5033379;28;20049;-76
2023/06/02 03:12:37;;;;;;;12.77;9.48;;;;;;;;;;5033114;28;20422;-77
2023/06/02 03:15:04;;;;;;;13.02;9.05;;;;;;;;;;5015703;28;20049;-77
2023/06/02 03:17:32;;;;;;;26.50;9.45;;;;;;;;;;5033133;28;20053;-77
2023/06/02 03:19:59;;;;;;;16.50;9.18;;;;;;;;;;5033898;28;20115;-74
2023/06/02 03:22:28;;;;;;;12.35;8.15;;;;;;;;;;5015684;28;20395;-76
2023/06/02 03:24:54;;;;;;;13.02;8.82;;;;;;;;;;5016198;28;20084;-76
2023/06/02 03:27:22;;;;;;;19.40;9.35;;;;;;;;;;4999439;28;20506;-76
2023/06/02 03:29:53;;;;;;;22.52;9.75;;;;;;;;;;5015505;28;20513;-76
2023/06/02 03:32:23;;;;;;;25.73;10.05;;;;;;;;;;5033045;28;20516;-76
2023/06/02 03:34:49;;;;;;;17.23;8.73;;;;;;;;;;4999202;28;20136;-76
2023/06/02 03:37:15;;;;;;;20.17;9.35;;;;;;;;;;4998680;28;20386;-77
2023/06/02 03:39:44;;;;;;;18.55;8.93;;;;;;;;;;5015065;28;20046;-76
2023/06/02 03:42:10;;;;;;;17.02;8.98;;;;;;;;;;5014890;28;20037;-77
2023/06/02 03:44:36;;;;;;;23.90;9.70;;;;;;;;;;5014773;28;20601;-76
2023/06/02 03:47:02;;;;;;;13.77;9.40;;;;;;;;;;5032677;28;20050;-76
2023/06/02 03:49:29;;;;;;;16.98;8.38;;;;;;;;;;5032347;28;20136;-76
2023/06/02 03:51:58;;;;;;;17.40;8.63;;;;;;;;;;5015094;28;20131;-77
2023/06/02 03:54:25;;;;;;;16.25;8.23;;;;;;;;;;5014463;28;20072;-78
2023/06/02 03:56:51;;;;;;;21.30;8.45;;;;;;;;;;5014940;28;20137;-76
2023/06/02 03:59:17;;;;;;;14.05;8.52;;;;;;;;;;5032156;28;20057;-77
2023/06/02 04:01:43;;;;;;;22.05;8.68;;;;;;;;;;5032619;28;20582;-76
2023/06/02 04:04:12;;;;;;;23.30;9.23;;;;;;;;;;5032371;28;20041;-79
2023/06/02 04:06:41;;;;;;;18.40;8.27;;;;;;;;;;5014664;28;20116;-78
2023/06/02 04:09:11;;;;;;;14.13;11.02;;;;;;;;;;5032390;28;20041;-79
2023/06/02 04:11:37;;;;;;;17.58;9.38;;;;;;;;;;5014221;28;20500;-79
2023/06/02 04:14:04;;;;;;;14.68;8.70;;;;;;;;;;5014602;28;20112;-78
2023/06/02 04:16:30;;;;;;;20.80;10.40;;;;;;;;;;5031005;28;20045;-79
2023/06/02 04:18:56;;;;;;;16.75;8.90;;;;;;;;;;5031730;28;20510;-80
2023/06/02 04:21:23;;;;;;;13.45;9.35;;;;;;;;;;5014437;28;20402;-79
2023/06/02 04:23:49;;;;;;;23.25;8.77;;;;;;;;;;5014429;28;20051;-79
2023/06/02 04:26:16;;;;;;;18.63;8.40;;;;;;;;;;5014657;28;20124;-78
2023/06/02 04:28:42;;;;;;;20.90;8.70;;;;;;;;;;5032235;28;20517;-79
2023/06/02 04:31:11;;;;;;;15.35;9.40;;;;;;;;;;4998156;28;20041;-78
2023/06/02 04:33:42;;;;;;;17.08;9.10;;;;;;;;;;4997980;28;20156;-78
2023/06/02 04:36:10;;;;;;;13.63;8.77;;;;;;;;;;5014720;28;20046;-78
2023/06/02 04:38:38;;;;;;;15.75;8.07;;;;;;;;;;5022871;28;20053;-77
2023/06/02 04:41:07;;;;;;;15.23;7.40;;;;;;;;;;5016597;28;20042;-77
2023/06/02 04:43:34;;;;;;;13.75;7.78;;;;;;;;;;5030361;28;20037;-78
2023/06/02 04:46:06;;;;;;;9.73;7.50;;;;;;;;;;5013840;28;20061;-77
2023/06/02 04:48:33;;;;;;;13.60;7.47;;;;;;;;;;5031656;28;20049;-78
2023/06/02 04:50:59;;;;;;;20.40;7.50;;;;;;;;;;5013980;28;20123;-76
2023/06/02 04:53:26;;;;;;;12.70;6.32;;;;;;;;;;5013436;28;20136;-78
2023/06/02 04:55:53;;;;;;;10.82;6.30;;;;;;;;;;5031589;28;20050;-77
2023/06/02 04:58:20;;;;;;;15.00;6.55;;;;;;;;;;4989135;28;20061;-78
2023/06/02 05:00:46;;;;;;;13.98;7.95;;;;;;;;;;4994236;28;20132;-76
2023/06/02 05:03:12;;;;;;;10.93;8.02;;;;;;;;;;5011785;28;20144;-77
2023/06/02 05:05:38;;;;;;;12.32;7.20;;;;;;;;;;5010984;28;20041;-77
2023/06/02 05:08:05;;;;;;;11.27;7.47;;;;;;;;;;5011464;28;20133;-76
2023/06/02 05:10:31;;;;;;;12.20;6.30;;;;;;;;;;5009990;28;20116;-78
2023/06/02 05:12:57;;;;;;;9.25;6.13;;;;;;;;;;4993820;28;20491;-78
2023/06/02 05:15:23;;;;;;;18.02;10.95;;;;;;;;;;5011049;28;20054;-78
2023/06/02 05:17:49;;;;;;;10.80;6.45;;;;;;;;;;4993775;28;20088;-78
2023/06/02 05:20:19;;;;;;;9.48;6.38;;;;;;;;;;4993770;28;20139;-77
2023/06/02 05:22:46;;;;;;;8.25;6.70;;;;;;;;;;5011234;28;20073;-78
2023/06/02 05:25:12;;;;;;;10.93;7.35;;;;;;;;;;4993637;28;20050;-78
2023/06/02 05:27:39;;;;;;;11.15;7.25;;;;;;;;;;4993497;28;20501;-76
2023/06/02 05:30:07;;;;;;;11.75;6.40;;;;;;;;;;4992480;28;20421;-78
2023/06/02 05:32:33;;;;;;;8.65;6.90;;;;;;;;;;4993118;28;20568;-77
2023/06/02 05:35:01;;;;;;;10.60;5.28;;;;;;;;;;4993861;28;20050;-77
2023/06/02 05:37:30;;;;;;;6.75;6.10;;;;;;;;;;5011122;28;20030;-76
2023/06/02 05:39:57;;;;;;;7.50;4.90;;;;;;;;;;4977586;28;20528;-78
2023/06/02 05:42:25;;;;;;;6.90;3.90;;;;;;;;;;4993594;28;20041;-77
2023/06/02 05:44:52;;;;;;;8.60;4.28;;;;;;;;;;4994324;28;20045;-78
2023/06/02 05:47:18;;;;;;;4.93;4.50;;;;;;;;;;4993885;28;20457;-78
2023/06/02 05:49:44;;;;;;;8.27;4.78;;;;;;;;;;5011326;28;20572;-77
2023/06/02 05:52:10;;;;;;;5.32;4.40;;;;;;;;;;5013548;28;20096;-78
2023/06/02 05:54:37;;;;;;;7.07;5.18;;;;;;;;;;5003987;28;20097;-78
2023/06/02 05:57:04;;;;;;;11.73;5.18;;;;;;;;;;4997750;28;20597;-77
2023/06/02 05:59:30;;;;;;;12.70;5.18;;;;;;;;;;5028601;28;20533;-78
2023/06/02 06:01:56;;;;;;;5.35;4.80;;;;;;;;;;5030417;28;20037;-77
2023/06/02 06:04:22;;;;;;;7.07;4.30;;;;;;;;;;5030345;28;20052;-77
2023/06/02 06:06:48;;;;;;;8.77;4.35;;;;;;;;;;5012832;28;20120;-77
2023/06/02 06:09:14;;;;;;;4.80;4.25;;;;;;;;;;5030307;28;20489;-78
2023/06/02 06:11:41;;;;;;;5.57;4.40;;;;;;;;;;4996097;28;20140;-77
2023/06/02 06:14:07;;;;;;;6.97;4.43;;;;;;;;;;5028970;28;20569;-78
2023/06/02 06:16:36;;;;;;;6.20;4.00;;;;;;;;;;5028753;28;20045;-75
2023/06/02 06:19:02;;;;;;;5.30;4.05;;;;;;;;;;5012669;28;20050;-78
2023/06/02 06:21:29;;;;;;;6.32;3.63;;;;;;;;;;5012823;28;20052;-78
2023/06/02 06:23:55;;;;;;;11.82;5.05;;;;;;;;;;5035854;28;20101;-79
2023/06/02 06:26:22;;;;;;;5.60;3.70;;;;;;;;;;5014446;28;20076;-79
2023/06/02 06:28:48;;;;;;;5.55;4.05;;;;;;;;;;5012245;28;20041;-77
2023/06/02 06:31:14;;;;;;;9.07;4.13;;;;;;;;;;5012481;28;20054;-77
2023/06/02 06:33:41;;;;;;;5.13;3.85;;;;;;;;;;5012141;28;20050;-77
2023/06/02 06:36:08;;;;;;;4.63;4.20;;;;;;;;;;5029932;28;20049;-78
2023/06/02 06:38:34;;;;;;;4.80;4.25;;;;;;;;;;5012040;28;20090;-78
2023/06/02 06:41:00;;;;;;;5.43;3.80;;;;;;;;;;5013983;28;20049;-76
2023/06/02 06:43:28;;;;;;;7.55;4.25;;;;;;;;;;5033820;28;20044;-77
2023/06/02 06:46:08;;;;;;;8.27;4.60;;;;;;;;;;5016371;28;20042;-78
2023/06/02 06:48:35;;;;;;;8.18;4.65;;;;;;;;;;5034155;28;20041;-79
2023/06/02 06:51:01;;;;;;;8.93;4.90;;;;;;;;;;5034038;28;20052;-78
2023/06/02 06:53:27;;;;;;;6.35;3.90;;;;;;;;;;5033515;28;20038;-77
2023/06/02 06:55:54;;;;;;;7.18;4.50;;;;;;;;;;5033645;28;20052;-76
2023/06/02 06:58:20;;;;;;;4.60;4.15;;;;;;;;;;5008089;28;20054;-77
2023/06/02 07:00:46;;;;;;;7.30;4.60;;;;;;;;;;5013761;28;20494;-78
2023/06/02 07:03:12;;;;;;;5.28;4.20;;;;;;;;;;5013769;28;20084;-78
2023/06/02 07:05:38;;;;;;;8.75;4.53;;;;;;;;;;5013333;28;20426;-78
2023/06/02 07:08:04;;;;;;;4.40;3.70;;;;;;;;;;4996617;28;20042;-78
2023/06/02 07:10:31;;;;;;;7.10;4.15;;;;;;;;;;4996322;28;20048;-78
2023/06/02 07:12:57;;;;;;;8.10;4.20;;;;;;;;;;5014256;28;20045;-78
2023/06/02 07:15:23;;;;;;;9.70;4.57;;;;;;;;;;5013858;28;20054;-77
2023/06/02 07:17:49;;;;;;;5.32;4.40;;;;;;;;;;5013604;28;20037;-78
2023/06/02 07:20:15;;;;;;;7.97;3.97;;;;;;;;;;4996018;28;20502;-77
2023/06/02 07:22:41;;;;;;;5.03;4.00;;;;;;;;;;5013406;28;20132;-78
2023/06/02 07:25:08;;;;;;;3.63;3.05;;;;;;;;;;5013438;28;20046;-79
2023/06/02 07:27:34;;;;;;;12.50;4.32;;;;;;;;;;5013098;28;20366;-76
2023/06/02 07:30:00;;;;;;;9.35;4.40;;;;;;;;;;5013237;28;20407;-77
2023/06/02 07:32:26;;;;;;;5.53;3.97;;;;;;;;;;5013360;28;20034;-78
2023/06/02 07:34:52;;;;;;;6.47;4.00;;;;;;;;;;4995437;28;20565;-78
2023/06/02 07:37:18;;;;;;;3.97;3.22;;;;;;;;;;4979448;28;20073;-79
2023/06/02 07:39:44;;;;;;;5.03;3.25;;;;;;;;;;5012729;28;20045;-78
2023/06/02 07:42:10;;;;;;;5.20;3.67;;;;;;;;;;4995459;28;20037;-78
2023/06/02 07:44:37;;;;;;;7.07;3.60;;;;;;;;;;5012625;28;20061;-77
2023/06/02 07:47:04;;;;;;;5.65;3.45;;;;;;;;;;5013159;28;20038;-77
2023/06/02 07:49:29;;;;;;;3.03;2.83;;;;;;;;;;5013020;28;20619;-77
2023/06/02 07:51:55;;;;;;;3.90;2.90;;;;;;;;;;5012378;28;20214;-79
2023/06/02 07:54:22;;;;;;;3.40;2.97;;;;;;;;;;5013079;28;20058;-78
2023/06/02 07:56:50;;;;;;;6.93;3.20;;;;;;;;;;5012850;28;20498;-76
2023/06/02 07:59:18;;;;;;;5.68;2.70;;;;;;;;;;5028800;28;20065;-77
2023/06/02 08:01:45;;;;;;;7.30;2.58;;;;;;;;;;5032189;28;20042;-77
2023/06/02 08:04:11;;;;;;;8.18;2.88;;;;;;;;;;5014803;28;20052;-79
2023/06/02 08:06:37;;;;;;;5.70;2.78;;;;;;;;;;5015311;28;20425;-78
2023/06/02 08:09:04;;;;;;;4.38;3.00;;;;;;;;;;5020289;28;20045;-77
2023/06/02 08:11:30;;;;;;;6.45;3.42;;;;;;;;;;5017055;28;20597;-77
2023/06/02 08:13:56;;;;;;;5.32;3.05;;;;;;;;;;5031210;28;20084;-78
2023/06/02 08:16:23;;;;;;;4.40;2.90;;;;;;;;;;5032134;28;20599;-78
2023/06/02 08:18:49;;;;;;;4.05;3.38;;;;;;;;;;5031810;28;20098;-77
2023/06/02 08:21:15;;;;;;;7.57;2.95;;;;;;;;;;5014479;28;20080;-77
2023/06/02 08:23:41;;;;;;;7.57;2.97;;;;;;;;;;5013961;28;20046;-79
2023/06/02 08:26:07;;;;;;;6.43;3.47;;;;;;;;;;5032047;28;20042;-78
2023/06/02 08:28:34;;;;;;;9.02;3.60;;;;;;;;;;5031936;28;20045;-78
2023/06/02 08:31:00;;;;;;;5.97;3.15;;;;;;;;;;5014517;28;20045;-78
2023/06/02 08:33:27;;;;;;;5.57;3.38;;;;;;;;;;5031843;28;20052;-78
2023/06/02 08:35:53;;;;;;;5.40;3.05;;;;;;;;;;5031755;28;20042;-79
2023/06/02 08:38:20;;;;;;;4.05;2.88;;;;;;;;;;5015224;28;20068;-78
2023/06/02 08:40:46;;;;;;;4.53;2.78;;;;;;;;;;5032053;28;20120;-78
2023/06/02 08:43:13;;;;;;;5.15;3.63;;;;;;;;;;5014880;28;20509;-78
2023/06/02 08:45:39;;;;;;;5.63;3.40;;;;;;;;;;5023916;28;20057;-79
2023/06/02 08:48:05;;;;;;;4.72;3.10;;;;;;;;;;5021330;28;20050;-78
2023/06/02 08:50:32;;;;;;;4.20;2.35;;;;;;;;;;5032076;28;20124;-78
2023/06/02 08:53:00;;;;;;;4.85;3.13;;;;;;;;;;5032188;28;20497;-77
2023/06/02 08:55:27;;;;;;;5.65;3.42;;;;;;;;;;5014742;28;20041;-78
2023/06/02 08:57:53;;;;;;;5.32;3.50;;;;;;;;;;5031489;28;20127;-79
2023/06/02 09:00:20;;;;;;;5.93;3.42;;;;;;;;;;5031632;28;20045;-79
2023/06/02 09:02:47;;;;;;;4.85;3.70;;;;;;;;;;5031239;28;20163;-78
2023/06/02 09:05:16;;;;;;;8.15;3.78;;;;;;;;;;5031046;28;20052;-78
2023/06/02 09:07:45;;;;;;;4.93;2.80;;;;;;;;;;4996922;28;20049;-77
2023/06/02 09:10:31;;;;;;;6.35;3.00;;;;;;;;;;5031181;28;20044;-78
2023/06/02 09:12:56;;;;;;;7.38;3.65;;;;;;;;;;5013195;28;20148;-78
2023/06/02 09:15:23;;;;;;;6.18;3.22;;;;;;;;;;5013237;28;20529;-79
2023/06/02 09:17:49;;;;;;;5.47;3.35;;;;;;;;;;5030627;28;20056;-78
2023/06/02 09:20:15;;;;;;;8.05;3.08;;;;;;;;;;5031192;28;20600;-79
2023/06/02 09:22:52;;;;;;;5.47;3.28;;;;;;;;;;5013058;28;20095;-76
2023/06/02 09:25:25;;;;;;;3.33;3.03;;;;;;;;;;5013455;28;20470;-79
2023/06/02 09:27:55;;;;;;;5.40;3.10;;;;;;;;;;5030634;28;20591;-79
2023/06/02 09:30:21;;;;;;;4.13;3.20;;;;;;;;;;5030625;28;20037;-78
2023/06/02 09:32:53;;;;;;;5.32;3.35;;;;;;;;;;5030323;28;20087;-79
2023/06/02 09:35:55;;;;;;;4.07;3.50;;;;;;;;;;5013248;28;20045;-79
2023/06/02 09:38:21;;;;;;;5.22;3.00;;;;;;;;;;4931125;29;20428;-78
2023/06/02 09:40:47;;;;;;;9.15;3.50;;;;;;;;;;5009806;28;20041;-78
2023/06/02 09:43:15;;;;;;;8.05;2.53;;;;;;;;;;5030671;28;20049;-79
2023/06/02 09:46:03;;;;;;;4.60;3.28;;;;;;;;;;5030241;28;20051;-77
2023/06/02 09:48:29;;;;;;;10.30;3.60;;;;;;;;;;5012845;28;20042;-78
2023/06/02 09:50:55;;;;;;;7.40;3.20;;;;;;;;;;5030341;28;20528;-77
2023/06/02 09:53:22;;;;;;;4.15;3.75;;;;;;;;;;5031293;28;20069;-78
2023/06/02 09:55:50;;;;;;;3.47;3.15;;;;;;;;;;5039119;28;20053;-77
2023/06/02 09:58:16;;;;;;;5.25;3.40;;;;;;;;;;5030442;28;20494;-78
2023/06/02 10:00:42;;;;;;;5.90;3.40;;;;;;;;;;5030201;28;20049;-77
2023/06/02 10:03:08;;;;;;;4.70;3.47;;;;;;;;;;5013406;28;20516;-78
2023/06/02 10:05:35;;;;;;;4.03;3.42;;;;;;;;;;5030757;28;20103;-78
2023/06/02 10:08:11;;;;;;;5.03;3.80;;;;;;;;;;5030397;28;20040;-77
2023/06/02 10:10:37;;;;;;;3.60;3.30;;;;;;;;;;5013315;28;20525;-77
2023/06/02 10:13:15;;;;;;;5.05;3.30;;;;;;;;;;5028984;28;20048;-80
2023/06/02 10:15:49;;;;;;;5.97;3.33;;;;;;;;;;5029565;28;20055;-77
2023/06/02 10:18:34;;;;;;;5.93;3.13;;;;;;;;;;4996274;28;20061;-78
2023/06/02 10:21:15;;;;;;;4.22;3.30;;;;;;;;;;5029801;28;20046;-77
2023/06/02 10:24:16;;;;;;;6.85;3.42;;;;;;;;;;5029794;28;20183;-78
2023/06/02 10:26:42;;;;;;;4.43;3.33;;;;;;;;;;4930059;29;20094;-79
2023/06/02 10:29:08;;;;;;;6.10;3.30;;;;;;;;;;5009968;28;20065;-78
2023/06/02 10:31:34;;;;;;;7.95;3.10;;;;;;;;;;4995737;28;20048;-77
2023/06/02 10:34:01;;;;;;;8.43;3.30;;;;;;;;;;5012211;28;20107;-77
2023/06/02 10:36:28;;;;;;;5.55;3.00;;;;;;;;;;5029963;28;20056;-77
2023/06/02 10:38:55;;;;;;;4.47;2.88;;;;;;;;;;5029732;28;20726;-78
2023/06/02 10:41:41;;;;;;;6.03;3.70;;;;;;;;;;5012451;28;20048;-78
2023/06/02 10:44:23;;;;;;;6.90;3.45;;;;;;;;;;5012178;28;20044;-78
2023/06/02 10:47:09;;;;;;;6.32;3.17;;;;;;;;;;5012749;28;20045;-77
2023/06/02 10:49:53;;;;;;;5.88;3.20;;;;;;;;;;5038821;28;20160;-76
2023/06/02 10:52:20;;;;;;;4.72;3.35;;;;;;;;;;5044121;28;20110;-77
2023/06/02 10:54:50;;;;;;;4.95;3.15;;;;;;;;;;5043718;28;20152;-77
2023/06/02 10:57:37;;;;;;;3.97;3.20;;;;;;;;;;5013716;28;20041;-78
2023/06/02 11:00:09;;;;;;;5.57;3.55;;;;;;;;;;5029781;28;20053;-77
2023/06/02 11:02:41;;;;;;;4.85;3.10;;;;;;;;;;5012649;28;20048;-78
2023/06/02 11:05:23;;;;;;;4.28;3.00;;;;;;;;;;5012051;28;20046;-77
2023/06/02 11:08:08;;;;;;;10.05;3.40;;;;;;;;;;5029590;28;20124;-77
2023/06/02 11:10:46;;;;;;;7.80;3.00;;;;;;;;;;5012062;28;20224;-78
2023/06/02 11:13:13;;;;;;;9.27;2.97;;;;;;;;;;5012202;28;20526;-77
2023/06/02 11:15:41;;;;;;;4.30;2.80;;;;;;;;;;5029570;28;20045;-79
2023/06/02 11:18:23;;;;;;;3.00;2.80;;;;;;;;;;5029635;28;20193;-78
2023/06/02 11:20:51;;;;;;;6.43;3.08;;;;;;;;;;4995338;28;20045;-78
2023/06/02 11:23:17;;;;;;;6.53;3.33;;;;;;;;;;5029721;28;20076;-79
2023/06/02 11:25:44;;;;;;;7.55;3.40;;;;;;;;;;5029286;28;20069;-78
2023/06/02 11:28:23;;;;;;;3.03;2.70;;;;;;;;;;5032776;28;20045;-80
2023/06/02 11:31:05;;;;;;;8.43;3.33;;;;;;;;;;5032486;28;20072;-79
2023/06/02 11:33:34;;;;;;;3.85;3.30;;;;;;;;;;5032904;28;20053;-78
2023/06/02 11:36:10;;;;;;;5.57;2.85;;;;;;;;;;5031537;28;20045;-78
2023/06/02 11:38:36;;;;;;;6.63;3.40;;;;;;;;;;5034562;28;20034;-76
2023/06/02 11:41:09;;;;;;;5.78;3.40;;;;;;;;;;5037246;28;20049;-76
2023/06/02 11:43:36;;;;;;;15.55;3.72;;;;;;;;;;5032982;28;20041;-78
2023/06/02 11:46:08;;;;;;;10.55;3.40;;;;;;;;;;5014668;28;20061;-79
2023/06/02 11:48:38;;;;;;;18.15;3.75;;;;;;;;;;5032876;28;20072;-78
2023/06/02 11:51:05;;;;;;;8.30;3.40;;;;;;;;;;5032502;28;20149;-77
2023/06/02 11:53:31;;;;;;;7.03;3.03;;;;;;;;;;5015155;28;20069;-78
2023/06/02 11:55:58;;;;;;;5.50;3.63;;;;;;;;;;5032525;28;20103;-78
2023/06/02 11:58:24;;;;;;;6.68;3.03;;;;;;;;;;5032894;28;20053;-77
2023/06/02 12:00:51;;;;;;;5.32;3.20;;;;;;;;;;5031352;28;20395;-78
2023/06/02 12:03:17;;;;;;;3.28;3.08;;;;;;;;;;5015062;28;20512;-78
2023/06/02 12:05:45;;;;;;;4.07;2.95;;;;;;;;;;5032576;28;20099;-77
2023/06/02 12:08:22;;;;;;;3.60;3.30;;;;;;;;;;5015108;28;20069;-77
2023/06/02 12:10:48;;;;;;;6.35;3.30;;;;;;;;;;5032472;28;20037;-76
2023/06/02 12:13:24;;;;;;;4.00;3.50;;;;;;;;;;5032462;28;20493;-77
2023/06/02 12:15:50;;;;;;;5.78;3.28;;;;;;;;;;5032036;28;20430;-78
2023/06/02 12:18:25;;;;;;;4.35;3.20;;;;;;;;;;5032760;28;20041;-77
2023/06/02 12:20:53;;;;;;;5.03;3.72;;;;;;;;;;5014944;28;20056;-77
2023/06/02 12:23:19;;;;;;;6.20;3.40;;;;;;;;;;5032553;28;20034;-77
2023/06/02 12:25:59;;;;;;;4.32;3.38;;;;;;;;;;5032397;28;20064;-77
2023/06/02 12:28:25;;;;;;;3.85;3.00;;;;;;;;;;5032181;28;20183;-78
2023/06/02 12:30:51;;;;;;;5.25;3.28;;;;;;;;;;5031693;28;20554;-77
2023/06/02 12:33:17;;;;;;;6.53;3.42;;;;;;;;;;5032219;28;20583;-77
2023/06/02 12:35:43;;;;;;;7.97;3.60;;;;;;;;;;5014028;28;20084;-77
2023/06/02 12:38:09;;;;;;;3.60;3.10;;;;;;;;;;5031256;28;20034;-78
2023/06/02 12:40:37;;;;;;;4.47;3.53;;;;;;;;;;5031769;28;20509;-78
2023/06/02 12:43:03;;;;;;;5.68;3.17;;;;;;;;;;5031432;28;20045;-76
2023/06/02 12:45:29;;;;;;;3.75;3.17;;;;;;;;;;5031693;28;20049;-77
2023/06/02 12:47:55;;;;;;;4.05;3.40;;;;;;;;;;4997594;28;20089;-78
2023/06/02 12:50:21;;;;;;;6.55;3.45;;;;;;;;;;5031650;28;20053;-77
2023/06/02 12:52:48;;;;;;;8.55;4.43;;;;;;;;;;5031207;28;20038;-78
2023/06/02 12:55:15;;;;;;;6.22;3.20;;;;;;;;;;5013946;28;20057;-78
2023/06/02 12:57:41;;;;;;;5.95;3.63;;;;;;;;;;5031458;28;20459;-77
2023/06/02 13:00:09;;;;;;;5.65;3.05;;;;;;;;;;5013933;28;20076;-77
2023/06/02 13:02:35;;;;;;;5.55;3.13;;;;;;;;;;5031215;28;20033;-77
2023/06/02 13:05:01;;;;;;;3.80;3.38;;;;;;;;;;5031153;28;20507;-76
2023/06/02 13:07:30;;;;;;;3.00;2.80;;;;;;;;;;5031409;28;20037;-77
2023/06/02 13:09:55;;;;;;;3.63;2.92;;;;;;;;;;5031087;28;20049;-76
2023/06/02 13:12:21;;;;;;;3.10;2.80;;;;;;;;;;5031467;28;20497;-76
2023/06/02 13:14:48;;;;;;;4.55;2.50;;;;;;;;;;5031317;28;20132;-77
2023/06/02 13:17:13;;;;;;;3.33;2.88;;;;;;;;;;5030778;28;20091;-77
2023/06/02 13:19:41;;;;;;;3.85;3.05;;;;;;;;;;5031358;28;20049;-78
2023/06/02 13:22:07;;;;;;;4.20;2.50;;;;;;;;;;5013326;28;20045;-77
2023/06/02 13:24:33;;;;;;;2.75;2.55;;;;;;;;;;5042888;28;20045;-78
2023/06/02 13:27:00;;;;;;;2.83;2.50;;;;;;;;;;5035555;28;20033;-77
2023/06/02 13:29:26;;;;;;;4.85;2.78;;;;;;;;;;5031458;28;20052;-77
2023/06/02 13:31:52;;;;;;;3.63;2.67;;;;;;;;;;5030851;28;20042;-77
2023/06/02 13:34:19;;;;;;;3.10;2.70;;;;;;;;;;5013732;28;20057;-77
2023/06/02 13:36:46;;;;;;;2.83;2.60;;;;;;;;;;5031266;28;20529;-77
2023/06/02 13:39:12;;;;;;;4.00;2.80;;;;;;;;;;5031303;28;20076;-78
2023/06/02 13:41:38;;;;;;;5.03;2.50;;;;;;;;;;5018855;28;20037;-78
2023/06/02 13:44:04;;;;;;;3.90;2.85;;;;;;;;;;5026384;28;20080;-79
2023/06/02 13:46:30;;;;;;;6.07;2.75;;;;;;;;;;5039483;28;20041;-79
2023/06/02 13:48:56;;;;;;;3.15;2.95;;;;;;;;;;5013961;28;20425;-79
2023/06/02 13:51:22;;;;;;;3.25;2.40;;;;;;;;;;5030216;28;20103;-78
2023/06/02 13:53:48;;;;;;;4.57;2.58;;;;;;;;;;5013632;28;20045;-78
2023/06/02 13:56:14;;;;;;;6.88;2.97;;;;;;;;;;5036317;28;20052;-77
2023/06/02 13:58:40;;;;;;;4.85;2.58;;;;;;;;;;5032891;28;20061;-79
2023/06/02 14:01:06;;;;;;;2.60;2.45;;;;;;;;;;5030726;28;20045;-79
2023/06/02 14:03:32;;;;;;;4.65;2.53;;;;;;;;;;5030887;28;20417;-78
2023/06/02 14:05:58;;;;;;;4.93;2.70;;;;;;;;;;5029258;28;20056;-79
2023/06/02 14:08:24;;;;;;;5.65;2.33;;;;;;;;;;5030796;28;20522;-78
2023/06/02 14:10:50;;;;;;;8.55;2.63;;;;;;;;;;5013016;28;20045;-78
2023/06/02 14:13:16;;;;;;;3.42;2.40;;;;;;;;;;5030326;28;20041;-79
2023/06/02 14:15:42;;;;;;;4.88;2.30;;;;;;;;;;5029381;28;20473;-77
2023/06/02 14:18:08;;;;;;;2.40;2.30;;;;;;;;;;5030188;28;20040;-78
2023/06/02 14:20:35;;;;;;;2.95;2.42;;;;;;;;;;5030208;28;20075;-78
2023/06/02 14:23:01;;;;;;;6.22;2.45;;;;;;;;;;5012342;28;20037;-78
2023/06/02 14:25:27;;;;;;;3.15;1.90;;;;;;;;;;5012394;28;20045;-77
2023/06/02 14:27:52;;;;;;;2.42;2.20;;;;;;;;;;5030247;28;20504;-77
2023/06/02 14:30:19;;;;;;;2.78;2.58;;;;;;;;;;5030472;28;20053;-77
2023/06/02 14:32:45;;;;;;;2.78;2.50;;;;;;;;;;5030396;28;20040;-77
2023/06/02 14:35:12;;;;;;;2.58;2.03;;;;;;;;;;5030431;28;20061;-76
2023/06/02 14:37:37;;;;;;;3.78;2.40;;;;;;;;;;5029915;28;20049;-76
2023/06/02 14:40:04;;;;;;;2.10;1.98;;;;;;;;;;5030648;28;20041;-76
2023/06/02 14:42:30;;;;;;;4.35;2.50;;;;;;;;;;5029026;28;20044;-76